Time;durP1;ratioP1;P1;durP2;ratioP2;P2;SDS_P1;SDS_P2;PMS_P1;PMS_P2;Temp;Humidity;BMP_temperature;BMP_pressure;BME280_temperature;BME280_humidity;BME280_pressure;Samples;Min_cycle;Max_cycle;Signal;HPM_P1;HPM_P2
2024/03/10 00:00:47;;;;;;;90.20;41.50;;;;;;;;;;107142;1254;59835;-81
2024/03/10 00:03:33;;;;;;;100.90;43.90;;;;;;;;;;106503;1253;61622;-77
2024/03/10 00:06:00;;;;;;;80.80;39.60;;;;;;;;;;106360;1257;61346;-78
2024/03/10 00:08:26;;;;;;;71.40;38.60;;;;;;;;;;106804;1253;61333;-81
2024/03/10 00:10:53;;;;;;;73.50;38.90;;;;;;;;;;106397;1253;59879;-81
2024/03/10 00:13:20;;;;;;;69.40;37.00;;;;;;;;;;107739;1253;61094;-78
2024/03/10 00:15:46;;;;;;;60.50;31.70;;;;;;;;;;106864;1253;61235;-81
2024/03/10 00:18:13;;;;;;;58.80;30.50;;;;;;;;;;106865;1252;61146;-81
2024/03/10 00:20:39;;;;;;;61.20;32.00;;;;;;;;;;106475;1256;61281;-78
2024/03/10 00:23:06;;;;;;;67.10;31.50;;;;;;;;;;106549;1256;61333;-78
2024/03/10 00:25:32;;;;;;;59.00;29.70;;;;;;;;;;106177;1253;61324;-78
2024/03/10 00:27:58;;;;;;;44.40;26.40;;;;;;;;;;106510;1256;61262;-77
2024/03/10 00:30:25;;;;;;;43.30;24.40;;;;;;;;;;106505;1253;61367;-77
2024/03/10 00:32:52;;;;;;;47.10;23.20;;;;;;;;;;106473;1256;61248;-82
2024/03/10 00:35:18;;;;;;;32.70;20.40;;;;;;;;;;106223;1262;60625;-77
2024/03/10 00:37:45;;;;;;;42.50;23.10;;;;;;;;;;106292;1259;62175;-82
2024/03/10 00:40:11;;;;;;;39.70;21.30;;;;;;;;;;107073;1256;61369;-78
2024/03/10 00:42:37;;;;;;;48.30;27.50;;;;;;;;;;106256;1258;59263;-82
2024/03/10 00:45:04;;;;;;;55.00;26.50;;;;;;;;;;106367;1253;61157;-81
2024/03/10 00:47:31;;;;;;;42.60;22.60;;;;;;;;;;106467;1253;61331;-78
2024/03/10 00:49:58;;;;;;;44.70;26.00;;;;;;;;;;106221;1254;61346;-81
2024/03/10 00:52:24;;;;;;;55.80;30.20;;;;;;;;;;106186;1254;61887;-82
2024/03/10 00:54:51;;;;;;;39.60;20.10;;;;;;;;;;106431;1254;61355;-81
2024/03/10 00:57:18;;;;;;;38.30;20.90;;;;;;;;;;106436;1253;62249;-81
2024/03/10 00:59:44;;;;;;;43.60;23.20;;;;;;;;;;106489;1253;61249;-78
2024/03/10 01:02:11;;;;;;;45.00;25.80;;;;;;;;;;106450;1259;61303;-82
2024/03/10 01:04:38;;;;;;;43.00;24.10;;;;;;;;;;106488;1256;61289;-80
2024/03/10 01:07:04;;;;;;;60.60;30.20;;;;;;;;;;106521;1253;62296;-78
2024/03/10 01:09:31;;;;;;;56.10;28.50;;;;;;;;;;109440;1253;58940;-81
2024/03/10 01:11:57;;;;;;;55.30;28.60;;;;;;;;;;109393;1252;59276;-81
2024/03/10 01:14:24;;;;;;;58.60;29.80;;;;;;;;;;109381;1258;59031;-78
2024/03/10 01:16:50;;;;;;;44.50;24.70;;;;;;;;;;109504;1253;58887;-81
2024/03/10 01:19:17;;;;;;;36.30;20.10;;;;;;;;;;109466;1252;59292;-78
2024/03/10 01:21:44;;;;;;;40.60;21.30;;;;;;;;;;109489;1252;58965;-82
2024/03/10 01:24:12;;;;;;;33.50;20.00;;;;;;;;;;107680;1254;59253;-78
2024/03/10 01:26:40;;;;;;;30.50;16.50;;;;;;;;;;106862;1256;61973;-81
2024/03/10 01:29:08;;;;;;;43.60;18.60;;;;;;;;;;109467;1253;59758;-78
2024/03/10 01:31:34;;;;;;;32.10;16.70;;;;;;;;;;108032;1253;61309;-78
2024/03/10 01:34:01;;;;;;;47.60;22.80;;;;;;;;;;109452;1252;59117;-78
2024/03/10 01:36:27;;;;;;;30.30;18.30;;;;;;;;;;109510;1252;59219;-78
2024/03/10 01:38:54;;;;;;;30.70;17.40;;;;;;;;;;109483;1253;58893;-81
2024/03/10 01:41:20;;;;;;;36.50;17.70;;;;;;;;;;109389;1253;58888;-78
2024/03/10 01:43:49;;;;;;;28.40;16.90;;;;;;;;;;109473;1253;59001;-81
2024/03/10 01:46:16;;;;;;;26.60;18.00;;;;;;;;;;109466;1254;59104;-81
2024/03/10 01:48:43;;;;;;;28.10;17.50;;;;;;;;;;109163;1253;59058;-81
2024/03/10 01:51:13;;;;;;;29.70;17.20;;;;;;;;;;107045;1253;61100;-78
2024/03/10 01:53:39;;;;;;;30.00;17.20;;;;;;;;;;106435;1253;62240;-78
2024/03/10 01:56:06;;;;;;;23.50;14.00;;;;;;;;;;107518;1253;61191;-77
2024/03/10 01:58:32;;;;;;;24.80;13.90;;;;;;;;;;109482;1253;59027;-82
2024/03/10 02:01:01;;;;;;;35.50;18.40;;;;;;;;;;109458;1253;58968;-78
2024/03/10 02:03:28;;;;;;;26.80;15.70;;;;;;;;;;107146;1253;61880;-81
2024/03/10 02:05:55;;;;;;;24.50;14.20;;;;;;;;;;107627;1254;61139;-78
2024/03/10 02:08:21;;;;;;;25.70;14.10;;;;;;;;;;107241;1254;59264;-78
2024/03/10 02:10:48;;;;;;;23.80;14.60;;;;;;;;;;106464;1259;62292;-82
2024/03/10 02:13:17;;;;;;;24.90;13.40;;;;;;;;;;106632;1254;61833;-78
2024/03/10 02:15:57;;;;;;;24.70;13.20;;;;;;;;;;109482;1254;62855;-82
2024/03/10 02:18:26;;;;;;;24.40;13.70;;;;;;;;;;109520;1254;58842;-82
2024/03/10 02:20:53;;;;;;;;;;;;;;;;;;109481;1254;60366;-78
2024/03/10 02:23:20;;;;;;;26.60;13.60;;;;;;;;;;109460;1253;58922;-82
2024/03/10 02:25:48;;;;;;;29.40;13.70;;;;;;;;;;108779;1254;61341;-81
2024/03/10 02:28:33;;;;;;;40.80;22.10;;;;;;;;;;106471;1256;62113;-77
2024/03/10 02:47:11;;;;;;;45.20;23.20;;;;;;;;;;106513;1256;61043;-82
2024/03/10 02:47:36;;;;;;;32.30;17.80;;;;;;;;;;106548;1254;61426;-80
2024/03/10 02:50:05;;;;;;;29.30;16.40;;;;;;;;;;107133;1256;59517;-83
2024/03/10 02:52:34;;;;;;;33.20;16.90;;;;;;;;;;107174;1256;61189;-81
2024/03/10 02:55:01;;;;;;;30.10;16.60;;;;;;;;;;106459;1256;61931;-83
2024/03/10 02:57:30;;;;;;;34.60;19.90;;;;;;;;;;107053;1254;61443;-80
2024/03/10 02:59:57;;;;;;;32.60;17.70;;;;;;;;;;106976;1259;61311;-83
2024/03/10 03:02:24;;;;;;;35.30;19.40;;;;;;;;;;107043;1256;61208;-84
2024/03/10 03:04:51;;;;;;;41.80;22.30;;;;;;;;;;107095;1254;61212;-81
2024/03/10 03:07:18;;;;;;;51.40;29.00;;;;;;;;;;106403;1253;62163;-81
2024/03/10 03:09:45;;;;;;;50.70;28.20;;;;;;;;;;106499;1254;61266;-81
2024/03/10 03:12:12;;;;;;;41.50;22.50;;;;;;;;;;106475;1255;61496;-81
2024/03/10 03:14:38;;;;;;;34.60;19.50;;;;;;;;;;106423;1257;61291;-78
2024/03/10 03:17:05;;;;;;;36.40;19.30;;;;;;;;;;106332;1257;61327;-78
2024/03/10 03:19:36;;;;;;;33.60;16.90;;;;;;;;;;107787;1253;61130;-81
2024/03/10 03:22:04;;;;;;;30.00;18.10;;;;;;;;;;109360;1254;58890;-81
2024/03/10 03:24:31;;;;;;;31.00;16.60;;;;;;;;;;108927;1255;61162;-78
2024/03/10 03:26:57;;;;;;;29.60;17.50;;;;;;;;;;109450;1253;58999;-78
2024/03/10 03:29:24;;;;;;;32.70;15.70;;;;;;;;;;109354;1254;59182;-81
2024/03/10 03:31:51;;;;;;;34.70;18.80;;;;;;;;;;109383;1253;60725;-81
2024/03/10 03:34:17;;;;;;;37.90;17.60;;;;;;;;;;109483;1257;58909;-81
2024/03/10 03:36:44;;;;;;;35.40;19.50;;;;;;;;;;109220;1254;59043;-78
2024/03/10 03:39:11;;;;;;;33.40;18.30;;;;;;;;;;109451;1254;59122;-82
2024/03/10 03:41:40;;;;;;;36.10;20.20;;;;;;;;;;109512;1255;58912;-81
2024/03/10 03:44:09;;;;;;;35.00;20.60;;;;;;;;;;109474;1254;62376;-81
2024/03/10 03:46:36;;;;;;;36.40;21.60;;;;;;;;;;107844;1259;59130;-81
2024/03/10 03:49:02;;;;;;;31.50;19.70;;;;;;;;;;106436;1254;61323;-82
2024/03/10 03:51:29;;;;;;;33.60;19.00;;;;;;;;;;106489;1253;61320;-81
2024/03/10 03:53:55;;;;;;;31.60;17.60;;;;;;;;;;106471;1256;61324;-78
2024/03/10 03:56:22;;;;;;;38.20;22.90;;;;;;;;;;106465;1256;61333;-82
2024/03/10 03:58:49;;;;;;;35.90;20.10;;;;;;;;;;106476;1257;61208;-78
2024/03/10 04:01:16;;;;;;;47.40;25.90;;;;;;;;;;106352;1257;62289;-84
2024/03/10 04:03:43;;;;;;;42.10;24.90;;;;;;;;;;107094;1253;62246;-80
2024/03/10 04:06:09;;;;;;;58.80;33.80;;;;;;;;;;107074;1254;62297;-84
2024/03/10 04:08:36;;;;;;;60.60;30.30;;;;;;;;;;106965;1256;61160;-83
2024/03/10 04:11:02;;;;;;;39.90;23.20;;;;;;;;;;107120;1256;61237;-83
2024/03/10 04:13:29;;;;;;;35.50;19.10;;;;;;;;;;107087;1256;61250;-84
2024/03/10 04:15:55;;;;;;;32.10;17.50;;;;;;;;;;107039;1256;61243;-80
2024/03/10 04:18:22;;;;;;;30.80;15.60;;;;;;;;;;107035;1254;61094;-80
2024/03/10 04:20:48;;;;;;;32.00;16.30;;;;;;;;;;107068;1253;61333;-80
2024/03/10 04:23:14;;;;;;;25.90;14.40;;;;;;;;;;107065;1254;63579;-80
2024/03/10 04:25:41;;;;;;;28.30;15.70;;;;;;;;;;107025;1254;61372;-84
2024/03/10 04:28:07;;;;;;;37.30;20.10;;;;;;;;;;106873;1253;61339;-84
2024/03/10 04:30:34;;;;;;;35.30;19.40;;;;;;;;;;107012;1255;61266;-84
2024/03/10 04:33:01;;;;;;;40.70;20.20;;;;;;;;;;107055;1256;61215;-80
2024/03/10 04:35:28;;;;;;;41.10;21.40;;;;;;;;;;107026;1260;61352;-80
2024/03/10 04:37:54;;;;;;;41.40;21.30;;;;;;;;;;107067;1257;61292;-83
2024/03/10 04:40:21;;;;;;;35.40;17.10;;;;;;;;;;107168;1251;61137;-83
2024/03/10 04:42:47;;;;;;;39.90;21.60;;;;;;;;;;107146;1256;61125;-80
2024/03/10 04:45:13;;;;;;;58.90;26.20;;;;;;;;;;107145;1251;61247;-80
2024/03/10 04:47:40;;;;;;;46.30;24.30;;;;;;;;;;107126;1256;63173;-83
2024/03/10 04:50:08;;;;;;;51.90;25.40;;;;;;;;;;107123;1252;61265;-80
2024/03/10 04:52:35;;;;;;;59.80;28.70;;;;;;;;;;107089;1253;61224;-84
2024/03/10 04:55:01;;;;;;;44.60;25.00;;;;;;;;;;107042;1254;60684;-80
2024/03/10 04:57:28;;;;;;;50.00;26.10;;;;;;;;;;108013;1254;61886;-78
2024/03/10 04:59:57;;;;;;;42.70;23.60;;;;;;;;;;109445;1254;60716;-81
2024/03/10 05:02:24;;;;;;;50.40;28.40;;;;;;;;;;109419;1254;58926;-81
2024/03/10 05:04:50;;;;;;;49.20;27.40;;;;;;;;;;109455;1254;59048;-81
2024/03/10 05:07:17;;;;;;;51.30;27.30;;;;;;;;;;109497;1253;58911;-78
2024/03/10 05:09:43;;;;;;;56.70;29.90;;;;;;;;;;109416;1254;58981;-82
2024/03/10 05:12:12;;;;;;;69.30;31.20;;;;;;;;;;109530;1254;58990;-81
2024/03/10 05:14:38;;;;;;;79.00;34.00;;;;;;;;;;109434;1253;59757;-82
2024/03/10 05:17:05;;;;;;;100.70;41.70;;;;;;;;;;107687;1255;61118;-77
2024/03/10 05:19:31;;;;;;;95.60;43.40;;;;;;;;;;106322;1258;61222;-82
2024/03/10 05:22:00;;;;;;;77.50;36.70;;;;;;;;;;106306;1257;61340;-78
2024/03/10 05:24:26;;;;;;;72.60;36.40;;;;;;;;;;106279;1257;61315;-78
2024/03/10 05:26:53;;;;;;;66.30;31.90;;;;;;;;;;106278;1255;61291;-81
2024/03/10 05:29:20;;;;;;;65.70;32.40;;;;;;;;;;106446;1254;61258;-84
2024/03/10 05:31:46;;;;;;;55.60;28.90;;;;;;;;;;106921;1259;61265;-80
2024/03/10 05:34:14;;;;;;;48.90;27.00;;;;;;;;;;107057;1255;62089;-81
2024/03/10 05:36:40;;;;;;;49.70;25.80;;;;;;;;;;107146;1251;61154;-79
2024/03/10 05:39:08;;;;;;;72.40;37.20;;;;;;;;;;107141;1257;61231;-83
2024/03/10 05:41:35;;;;;;;57.00;31.40;;;;;;;;;;107175;1251;61218;-83
2024/03/10 05:44:01;;;;;;;77.90;35.20;;;;;;;;;;107153;1251;61115;-83
2024/03/10 05:46:28;;;;;;;72.30;34.50;;;;;;;;;;106983;1252;269047;-80
2024/03/10 05:48:55;;;;;;;51.40;25.90;;;;;;;;;;107168;1256;61265;-83
2024/03/10 05:51:23;;;;;;;65.00;29.70;;;;;;;;;;107137;1256;61272;-81
2024/03/10 05:53:50;;;;;;;65.30;31.40;;;;;;;;;;107157;1254;61365;-79
2024/03/10 05:56:16;;;;;;;93.10;41.90;;;;;;;;;;107066;1252;61135;-83
2024/03/10 05:58:44;;;;;;;85.40;35.10;;;;;;;;;;107061;1254;59255;-79
2024/03/10 06:01:15;;;;;;;56.90;28.80;;;;;;;;;;107115;1254;61235;-80
2024/03/10 06:03:42;;;;;;;59.30;30.00;;;;;;;;;;107069;1254;61233;-84
2024/03/10 06:06:09;;;;;;;68.40;30.40;;;;;;;;;;106937;1257;61209;-83
2024/03/10 06:08:35;;;;;;;70.40;33.70;;;;;;;;;;107108;1254;61241;-80
2024/03/10 06:11:02;;;;;;;93.60;47.40;;;;;;;;;;107087;1253;61270;-83
2024/03/10 06:13:30;;;;;;;68.30;36.20;;;;;;;;;;107053;1257;61341;-83
2024/03/10 06:15:56;;;;;;;62.70;29.20;;;;;;;;;;107142;1256;59642;-79
2024/03/10 06:18:31;;;;;;;72.90;36.20;;;;;;;;;;107112;1254;61206;-80
2024/03/10 06:26:48;;;;;;;73.00;35.40;;;;;;;;;;106716;1258;61256;-79
2024/03/10 06:29:15;;;;;;;101.50;45.90;;;;;;;;;;106804;1254;61255;-82
2024/03/10 06:31:41;;;;;;;92.40;45.70;;;;;;;;;;107040;1254;61347;-83
2024/03/10 06:34:08;;;;;;;70.30;38.20;;;;;;;;;;106917;1251;61173;-80
2024/03/10 06:36:34;;;;;;;70.50;40.50;;;;;;;;;;107064;1251;61326;-80
2024/03/10 06:39:01;;;;;;;69.50;37.60;;;;;;;;;;107088;1256;61302;-79
2024/03/10 06:41:27;;;;;;;66.10;38.20;;;;;;;;;;107134;1251;61873;-83
2024/03/10 06:43:55;;;;;;;67.70;37.50;;;;;;;;;;107176;1251;61453;-80
2024/03/10 06:46:21;;;;;;;79.30;42.30;;;;;;;;;;107115;1251;59937;-80
2024/03/10 06:48:48;;;;;;;75.00;42.10;;;;;;;;;;107157;1252;61121;-80
2024/03/10 06:51:14;;;;;;;88.20;45.40;;;;;;;;;;107136;1254;59895;-83
2024/03/10 06:53:42;;;;;;;70.00;35.70;;;;;;;;;;107130;1254;61101;-80
2024/03/10 06:56:09;;;;;;;54.90;30.60;;;;;;;;;;107120;1254;61218;-81
2024/03/10 06:58:36;;;;;;;49.30;30.60;;;;;;;;;;107148;1254;61356;-79
2024/03/10 07:01:03;;;;;;;43.70;27.60;;;;;;;;;;107136;1254;61375;-79
2024/03/10 07:03:30;;;;;;;41.90;24.60;;;;;;;;;;107172;1254;63331;-79
2024/03/10 07:06:00;;;;;;;48.00;25.00;;;;;;;;;;107104;1254;61068;-80
2024/03/10 07:08:27;;;;;;;44.60;27.00;;;;;;;;;;106949;1257;61287;-83
2024/03/10 07:10:53;;;;;;;63.80;35.90;;;;;;;;;;107075;1254;61246;-80
2024/03/10 07:13:20;;;;;;;59.20;28.90;;;;;;;;;;107169;1254;61253;-80
2024/03/10 07:15:46;;;;;;;46.60;24.60;;;;;;;;;;107180;1255;60739;-83
2024/03/10 07:18:14;;;;;;;42.00;24.30;;;;;;;;;;107082;1255;61130;-80
2024/03/10 07:20:41;;;;;;;46.20;26.50;;;;;;;;;;107133;1254;61363;-80
2024/03/10 07:23:07;;;;;;;43.10;23.40;;;;;;;;;;107106;1254;61184;-84
2024/03/10 07:25:34;;;;;;;43.60;25.50;;;;;;;;;;107073;1256;61245;-83
2024/03/10 07:28:00;;;;;;;41.90;25.00;;;;;;;;;;107040;1259;61405;-84
2024/03/10 07:30:26;;;;;;;42.80;25.30;;;;;;;;;;107066;1256;62615;-84
2024/03/10 07:32:53;;;;;;;41.60;22.90;;;;;;;;;;107086;1253;61230;-81
2024/03/10 07:35:21;;;;;;;47.50;28.80;;;;;;;;;;107201;1251;63161;-80
2024/03/10 07:37:48;;;;;;;36.80;23.10;;;;;;;;;;107068;1254;61924;-84
2024/03/10 07:40:17;;;;;;;34.80;22.50;;;;;;;;;;107171;1255;60997;-80
2024/03/10 07:42:43;;;;;;;32.00;22.00;;;;;;;;;;107130;1255;61362;-85
2024/03/10 07:45:10;;;;;;;31.40;17.60;;;;;;;;;;107071;1251;61330;-84
2024/03/10 07:47:41;;;;;;;35.70;21.30;;;;;;;;;;107153;1251;62392;-85
2024/03/10 07:50:08;;;;;;;29.40;18.80;;;;;;;;;;106946;1251;62235;-84
2024/03/10 07:52:35;;;;;;;24.20;16.20;;;;;;;;;;107140;1251;61333;-82
2024/03/10 07:55:04;;;;;;;31.70;18.90;;;;;;;;;;107085;1254;61376;-82
2024/03/10 07:57:34;;;;;;;27.60;17.20;;;;;;;;;;108355;1253;61247;-78
2024/03/10 08:00:05;;;;;;;28.60;18.80;;;;;;;;;;106578;1256;61225;-83
2024/03/10 08:02:32;;;;;;;29.60;21.10;;;;;;;;;;106588;1253;62206;-82
2024/03/10 08:04:58;;;;;;;27.30;19.70;;;;;;;;;;107183;1254;61235;-78
2024/03/10 08:07:25;;;;;;;28.30;19.80;;;;;;;;;;106242;1253;61164;-78
2024/03/10 08:09:51;;;;;;;25.00;15.50;;;;;;;;;;106887;1253;61137;-83
2024/03/10 08:12:18;;;;;;;24.90;17.00;;;;;;;;;;108543;1253;59439;-79
2024/03/10 08:14:45;;;;;;;24.50;15.90;;;;;;;;;;107941;1253;61125;-83
2024/03/10 08:17:12;;;;;;;23.40;15.90;;;;;;;;;;107175;1253;61219;-83
2024/03/10 08:19:38;;;;;;;20.20;14.90;;;;;;;;;;107112;1252;61209;-78
2024/03/10 08:22:05;;;;;;;22.60;14.30;;;;;;;;;;106457;1254;61331;-78
2024/03/10 08:24:32;;;;;;;18.80;13.90;;;;;;;;;;106527;1253;61267;-83
2024/03/10 08:26:58;;;;;;;18.10;13.40;;;;;;;;;;106988;1253;62206;-83
2024/03/10 08:29:25;;;;;;;19.10;13.10;;;;;;;;;;107060;1254;61263;-83
2024/03/10 08:31:55;;;;;;;21.30;14.70;;;;;;;;;;106975;1257;61649;-78
2024/03/10 08:34:21;;;;;;;19.10;12.50;;;;;;;;;;106303;1253;61040;-83
2024/03/10 08:36:48;;;;;;;19.10;12.80;;;;;;;;;;107097;1251;61373;-78
2024/03/10 08:39:16;;;;;;;19.20;13.20;;;;;;;;;;106524;1251;61359;-78
2024/03/10 08:41:43;;;;;;;18.50;12.60;;;;;;;;;;106554;1251;61254;-83
2024/03/10 08:44:11;;;;;;;20.00;14.10;;;;;;;;;;106581;1256;61342;-78
2024/03/10 08:46:37;;;;;;;16.20;12.40;;;;;;;;;;106581;1251;61212;-78
2024/03/10 08:49:04;;;;;;;15.00;11.10;;;;;;;;;;106596;1251;61275;-79
2024/03/10 08:51:31;;;;;;;20.30;14.20;;;;;;;;;;106531;1256;61259;-79
2024/03/10 08:53:58;;;;;;;20.10;12.40;;;;;;;;;;106553;1253;61206;-79
2024/03/10 08:56:24;;;;;;;14.80;9.60;;;;;;;;;;106675;1253;61174;-79
2024/03/10 08:58:50;;;;;;;15.40;10.10;;;;;;;;;;107279;1256;61196;-82
2024/03/10 09:01:17;;;;;;;11.80;9.40;;;;;;;;;;106607;1254;61320;-83
2024/03/10 09:03:43;;;;;;;11.70;8.50;;;;;;;;;;107202;1254;61343;-78
2024/03/10 09:06:10;;;;;;;11.60;8.90;;;;;;;;;;107135;1254;60376;-83
2024/03/10 09:08:36;;;;;;;11.90;7.70;;;;;;;;;;107152;1256;61263;-83
2024/03/10 09:11:06;;;;;;;13.00;8.90;;;;;;;;;;106992;1252;61191;-79
2024/03/10 09:13:33;;;;;;;19.00;13.30;;;;;;;;;;106599;1253;60246;-79
2024/03/10 09:16:00;;;;;;;14.30;10.00;;;;;;;;;;106358;1254;62803;-83
2024/03/10 09:18:26;;;;;;;12.30;9.60;;;;;;;;;;107145;1254;59819;-79
2024/03/10 09:20:52;;;;;;;18.40;9.50;;;;;;;;;;106279;1253;62074;-78
2024/03/10 09:23:19;;;;;;;18.00;9.40;;;;;;;;;;106471;1253;61357;-78
2024/03/10 09:25:45;;;;;;;21.00;9.80;;;;;;;;;;106505;1254;63266;-79
2024/03/10 09:28:12;;;;;;;10.00;5.50;;;;;;;;;;106494;1257;61181;-83
2024/03/10 09:30:39;;;;;;;11.20;7.30;;;;;;;;;;106953;1253;61251;-83
2024/03/10 09:33:09;;;;;;;21.20;9.50;;;;;;;;;;106505;1254;61398;-78
2024/03/10 09:35:36;;;;;;;12.90;7.90;;;;;;;;;;106463;1256;61273;-78
2024/03/10 09:38:05;;;;;;;11.10;6.40;;;;;;;;;;106535;1256;61139;-78
2024/03/10 09:40:31;;;;;;;8.10;6.00;;;;;;;;;;106566;1253;60739;-83
2024/03/10 09:43:01;;;;;;;8.30;5.40;;;;;;;;;;107192;1251;59706;-78
2024/03/10 09:45:28;;;;;;;9.60;6.70;;;;;;;;;;107637;1251;61320;-78
2024/03/10 09:47:55;;;;;;;33.60;15.50;;;;;;;;;;106524;1251;61349;-78
2024/03/10 09:50:24;;;;;;;18.20;11.20;;;;;;;;;;106544;1256;61251;-78
2024/03/10 09:52:56;;;;;;;8.20;5.30;;;;;;;;;;106529;1252;61915;-82
2024/03/10 09:55:24;;;;;;;24.10;12.70;;;;;;;;;;107128;1253;61212;-78
2024/03/10 09:57:53;;;;;;;18.40;9.60;;;;;;;;;;106492;1254;61147;-78
2024/03/10 10:00:23;;;;;;;;;;;;;;;;;;109480;1253;59280;-83
2024/03/10 10:02:59;;;;;;;14.50;6.20;;;;;;;;;;109503;1252;59015;-84
2024/03/10 10:05:29;;;;;;;8.80;5.90;;;;;;;;;;108544;1254;62863;-83
2024/03/10 10:07:57;;;;;;;15.00;8.80;;;;;;;;;;107067;1254;61372;-78
2024/03/10 10:10:24;;;;;;;9.70;5.40;;;;;;;;;;106320;1257;61103;-83
2024/03/10 10:12:53;;;;;;;7.20;4.30;;;;;;;;;;106933;1254;61234;-78
2024/03/10 10:15:26;;;;;;;6.60;4.60;;;;;;;;;;107157;1253;60756;-78
2024/03/10 10:17:56;;;;;;;9.40;4.70;;;;;;;;;;106340;1256;62436;-83
2024/03/10 10:20:25;;;;;;;8.70;4.60;;;;;;;;;;107113;1253;61062;-78
2024/03/10 10:22:52;;;;;;;11.40;7.90;;;;;;;;;;106263;1255;61381;-83
2024/03/10 10:25:19;;;;;;;9.90;5.50;;;;;;;;;;106944;1252;61356;-84
2024/03/10 10:27:49;;;;;;;5.80;4.20;;;;;;;;;;107095;1252;61298;-83
2024/03/10 10:30:16;;;;;;;13.00;5.00;;;;;;;;;;107183;1254;62095;-83
2024/03/10 10:32:43;;;;;;;9.00;5.30;;;;;;;;;;107186;1256;61256;-84
2024/03/10 10:35:09;;;;;;;6.20;4.60;;;;;;;;;;106963;1254;61616;-78
2024/03/10 10:37:36;;;;;;;6.10;4.50;;;;;;;;;;106481;1253;61228;-83
2024/03/10 10:40:11;;;;;;;10.80;5.40;;;;;;;;;;106502;1253;61340;-78
2024/03/10 10:42:38;;;;;;;7.40;5.00;;;;;;;;;;106459;1254;61687;-78
2024/03/10 10:45:06;;;;;;;56.60;45.00;;;;;;;;;;106554;1253;61266;-83
2024/03/10 10:47:32;;;;;;;8.90;5.70;;;;;;;;;;106560;1255;61262;-83
2024/03/10 10:49:59;;;;;;;9.00;4.80;;;;;;;;;;106361;1253;62097;-80
2024/03/10 10:52:25;;;;;;;10.30;5.40;;;;;;;;;;106367;1254;61531;-78
2024/03/10 10:54:52;;;;;;;11.30;6.10;;;;;;;;;;106355;1254;61421;-83
2024/03/10 10:57:18;;;;;;;9.70;4.60;;;;;;;;;;107165;1253;61342;-78
2024/03/10 10:59:46;;;;;;;5.20;3.80;;;;;;;;;;106369;1254;61148;-78
2024/03/10 11:02:19;;;;;;;8.10;5.00;;;;;;;;;;106521;1254;61277;-78
2024/03/10 11:04:46;;;;;;;7.20;4.90;;;;;;;;;;106526;1256;60235;-83
2024/03/10 11:07:15;;;;;;;5.50;3.90;;;;;;;;;;107027;1253;63194;-78
2024/03/10 11:09:42;;;;;;;5.90;3.90;;;;;;;;;;106605;1254;60329;-78
2024/03/10 11:12:19;;;;;;;6.50;3.70;;;;;;;;;;106484;1253;61590;-82
2024/03/10 11:14:47;;;;;;;5.80;3.50;;;;;;;;;;106335;1257;61212;-78
2024/03/10 11:17:16;;;;;;;4.30;3.50;;;;;;;;;;106556;1253;61152;-83
2024/03/10 11:19:46;;;;;;;11.50;6.00;;;;;;;;;;109471;1253;63103;-83
2024/03/10 11:22:12;;;;;;;11.10;5.40;;;;;;;;;;109484;1253;59103;-83
2024/03/10 11:24:39;;;;;;;7.00;4.50;;;;;;;;;;107570;1254;61235;-78
2024/03/10 11:27:10;;;;;;;4.90;3.60;;;;;;;;;;106325;1253;61342;-78
2024/03/10 11:29:37;;;;;;;5.20;3.10;;;;;;;;;;106357;1252;61161;-78
2024/03/10 11:32:03;;;;;;;6.20;4.10;;;;;;;;;;106972;1252;61235;-78
2024/03/10 11:34:30;;;;;;;4.40;2.60;;;;;;;;;;106432;1256;61285;-78
2024/03/10 11:36:57;;;;;;;7.20;4.00;;;;;;;;;;106507;1253;61343;-82
2024/03/10 11:39:23;;;;;;;4.50;3.00;;;;;;;;;;107155;1253;61221;-83
2024/03/10 11:41:50;;;;;;;4.90;3.30;;;;;;;;;;106974;1253;61173;-83
2024/03/10 11:44:16;;;;;;;11.00;4.90;;;;;;;;;;107165;1256;61244;-78
2024/03/10 11:46:43;;;;;;;3.40;2.80;;;;;;;;;;106511;1254;61322;-83
2024/03/10 11:49:12;;;;;;;11.60;5.40;;;;;;;;;;107053;1254;61238;-78
2024/03/10 11:51:38;;;;;;;;;;;;;;;;;;106516;1253;61888;-78
2024/03/10 11:54:07;;;;;;;5.40;3.10;;;;;;;;;;106460;1252;61202;-82
2024/03/10 11:56:33;;;;;;;;;;;;;;;;;;107157;1253;61280;-78
2024/03/10 11:59:00;;;;;;;4.60;2.80;;;;;;;;;;106528;1254;61332;-82
2024/03/10 12:01:27;;;;;;;4.30;2.90;;;;;;;;;;107021;1253;61234;-78
2024/03/10 12:03:54;;;;;;;5.80;3.00;;;;;;;;;;106521;1253;61181;-83
2024/03/10 12:06:20;;;;;;;10.30;6.70;;;;;;;;;;107132;1253;61139;-83
2024/03/10 12:08:48;;;;;;;9.10;6.40;;;;;;;;;;107019;1256;61925;-83
2024/03/10 12:11:18;;;;;;;8.00;7.00;;;;;;;;;;106502;1253;61285;-78
2024/03/10 12:13:45;;;;;;;57.70;29.80;;;;;;;;;;106512;1253;61233;-82
2024/03/10 12:16:11;;;;;;;12.50;6.60;;;;;;;;;;106333;1257;62929;-78
2024/03/10 12:18:40;;;;;;;19.60;11.80;;;;;;;;;;106351;1257;61381;-83
2024/03/10 12:21:14;;;;;;;6.10;3.80;;;;;;;;;;109402;1253;62902;-82
2024/03/10 12:23:41;;;;;;;36.80;16.80;;;;;;;;;;109042;1253;59339;-78
2024/03/10 12:26:09;;;;;;;18.20;8.40;;;;;;;;;;106524;1253;61231;-83
2024/03/10 12:28:36;;;;;;;24.20;9.60;;;;;;;;;;109349;1252;58891;-83
2024/03/10 12:31:09;;;;;;;4.50;3.00;;;;;;;;;;109508;1253;59210;-78
2024/03/10 12:33:37;;;;;;;5.10;3.10;;;;;;;;;;109465;1252;61930;-84
2024/03/10 12:36:04;;;;;;;3.90;2.70;;;;;;;;;;108254;1253;61218;-78
2024/03/10 12:38:31;;;;;;;6.00;3.30;;;;;;;;;;106517;1254;61251;-83
2024/03/10 12:40:57;;;;;;;12.80;6.50;;;;;;;;;;107076;1254;61269;-83
2024/03/10 12:43:24;;;;;;;6.60;3.90;;;;;;;;;;107170;1253;62057;-78
2024/03/10 12:45:51;;;;;;;10.30;4.40;;;;;;;;;;106510;1256;61871;-83
2024/03/10 12:48:18;;;;;;;4.00;2.70;;;;;;;;;;107133;1253;61287;-83
2024/03/10 12:50:44;;;;;;;4.80;3.40;;;;;;;;;;107088;1253;61679;-82
2024/03/10 12:53:11;;;;;;;11.10;3.60;;;;;;;;;;106944;1252;59600;-83
2024/03/10 12:55:38;;;;;;;7.60;3.80;;;;;;;;;;107114;1253;61093;-80
2024/03/10 12:58:04;;;;;;;8.90;4.20;;;;;;;;;;106470;1253;61773;-78
2024/03/10 13:00:31;;;;;;;4.90;2.80;;;;;;;;;;106311;1254;61317;-79
2024/03/10 13:02:58;;;;;;;6.30;4.30;;;;;;;;;;106487;1253;61363;-83
2024/03/10 13:05:27;;;;;;;8.70;5.30;;;;;;;;;;106513;1253;61317;-78
2024/03/10 13:07:54;;;;;;;6.60;4.10;;;;;;;;;;106536;1253;61313;-83
2024/03/10 13:10:20;;;;;;;5.70;2.80;;;;;;;;;;106571;1253;61259;-82
2024/03/10 13:12:47;;;;;;;4.80;3.00;;;;;;;;;;106550;1253;61359;-77
2024/03/10 13:15:13;;;;;;;5.80;4.20;;;;;;;;;;106363;1257;61238;-78
2024/03/10 13:17:40;;;;;;;7.20;3.80;;;;;;;;;;106561;1256;61143;-83
2024/03/10 13:20:16;;;;;;;6.20;3.20;;;;;;;;;;106974;1254;61263;-78
2024/03/10 13:22:43;;;;;;;3.80;1.60;;;;;;;;;;106581;1253;62062;-78
2024/03/10 13:25:11;;;;;;;3.30;2.40;;;;;;;;;;106315;1254;61276;-83
2024/03/10 13:27:37;;;;;;;5.80;2.80;;;;;;;;;;107111;1253;61192;-83
2024/03/10 13:30:08;;;;;;;4.20;2.90;;;;;;;;;;107049;1252;63264;-83
2024/03/10 13:32:34;;;;;;;7.40;2.90;;;;;;;;;;107113;1253;59223;-83
2024/03/10 13:35:01;;;;;;;6.60;2.90;;;;;;;;;;107178;1251;63095;-78
2024/03/10 13:37:28;;;;;;;12.90;5.40;;;;;;;;;;106548;1256;61209;-83
2024/03/10 13:39:55;;;;;;;5.60;4.10;;;;;;;;;;106519;1255;61247;-78
2024/03/10 13:42:23;;;;;;;3.20;2.10;;;;;;;;;;106537;1251;61144;-78
2024/03/10 13:44:51;;;;;;;6.30;3.00;;;;;;;;;;106581;1254;61238;-78
2024/03/10 13:47:17;;;;;;;10.10;5.60;;;;;;;;;;106617;1255;62021;-78
2024/03/10 13:49:44;;;;;;;19.90;10.00;;;;;;;;;;106538;1251;61791;-82
2024/03/10 13:52:17;;;;;;;10.30;5.90;;;;;;;;;;107157;1251;61078;-78
2024/03/10 13:54:45;;;;;;;9.80;5.30;;;;;;;;;;109232;1252;58935;-78
2024/03/10 13:57:15;;;;;;;6.40;3.50;;;;;;;;;;108329;1252;61369;-83
2024/03/10 13:59:43;;;;;;;4.50;2.70;;;;;;;;;;109438;1252;60710;-83
2024/03/10 14:02:10;;;;;;;7.90;4.50;;;;;;;;;;109481;1253;58921;-78
2024/03/10 14:04:37;;;;;;;10.00;3.10;;;;;;;;;;109422;1253;59764;-83
2024/03/10 14:07:04;;;;;;;5.50;3.00;;;;;;;;;;108249;1253;61420;-83
2024/03/10 14:09:30;;;;;;;15.40;10.10;;;;;;;;;;107118;1252;61215;-78
2024/03/10 14:11:58;;;;;;;3.70;2.50;;;;;;;;;;106399;1253;61257;-83
2024/03/10 14:14:25;;;;;;;8.40;3.10;;;;;;;;;;106555;1256;61277;-78
2024/03/10 14:16:51;;;;;;;8.50;2.20;;;;;;;;;;106481;1253;61251;-78
2024/03/10 14:19:18;;;;;;;3.90;2.20;;;;;;;;;;106528;1256;61205;-82
2024/03/10 14:21:45;;;;;;;6.10;3.50;;;;;;;;;;107007;1254;61828;-78
2024/03/10 14:24:12;;;;;;;6.00;3.00;;;;;;;;;;106542;1256;61195;-78
2024/03/10 14:26:38;;;;;;;4.70;2.90;;;;;;;;;;106547;1253;61290;-83
2024/03/10 14:29:06;;;;;;;5.60;3.80;;;;;;;;;;107153;1252;61269;-78
2024/03/10 14:31:32;;;;;;;6.10;3.20;;;;;;;;;;106508;1253;61402;-78
2024/03/10 14:33:59;;;;;;;9.10;4.00;;;;;;;;;;106471;1252;61182;-83